createdAt,value
2022-10-19T00:00:21.371Z,5.48
2022-10-19T00:01:21.410Z,5.51
2022-10-19T00:02:21.689Z,5.48
2022-10-19T00:03:23.240Z,5.45
2022-10-19T00:04:21.891Z,5.49
2022-10-19T00:05:22.032Z,5.47
2022-10-19T00:06:22.190Z,5.48
2022-10-19T00:07:22.338Z,5.47
2022-10-19T00:08:22.544Z,5.42
2022-10-19T00:09:22.660Z,5.41
2022-10-19T00:10:22.749Z,5.35
2022-10-19T00:11:22.911Z,5.42
2022-10-19T00:12:23.080Z,5.45
2022-10-19T00:13:23.242Z,5.42
2022-10-19T00:14:23.420Z,5.44
2022-10-19T00:15:23.520Z,5.47
2022-10-19T00:16:23.675Z,5.51
2022-10-19T00:17:23.823Z,5.52
2022-10-19T00:18:24.012Z,5.55
2022-10-19T00:19:24.140Z,5.60
2022-10-19T00:20:24.275Z,5.65
2022-10-19T00:21:24.465Z,5.62
2022-10-19T00:22:24.564Z,5.58
2022-10-19T00:23:24.717Z,5.49
2022-10-19T00:24:24.904Z,5.51
2022-10-19T00:25:25.071Z,5.51
2022-10-19T00:26:25.195Z,5.51
2022-10-19T00:27:25.293Z,5.52
2022-10-19T00:28:25.472Z,5.49
2022-10-19T00:29:25.548Z,5.48
2022-10-19T00:30:25.674Z,5.48
2022-10-19T00:31:25.798Z,5.49
2022-10-19T00:32:25.956Z,5.48
2022-10-19T00:33:26.112Z,5.47
2022-10-19T00:34:26.350Z,5.48
2022-10-19T00:35:26.447Z,5.49
2022-10-19T00:36:26.628Z,5.49
2022-10-19T00:37:26.851Z,5.47
2022-10-19T00:38:26.959Z,5.44
2022-10-19T00:39:27.142Z,5.44
2022-10-19T00:40:27.249Z,5.42
2022-10-19T00:41:27.345Z,5.47
2022-10-19T00:42:27.507Z,5.45
2022-10-19T00:43:27.671Z,5.44
2022-10-19T00:44:27.825Z,5.42
2022-10-19T00:45:27.932Z,5.35
2022-10-19T00:46:28.049Z,5.35
2022-10-19T00:47:28.208Z,5.29
2022-10-19T00:48:28.391Z,5.23
2022-10-19T00:49:28.584Z,5.17
2022-10-19T00:50:28.726Z,5.14
2022-10-19T00:51:28.922Z,5.12
2022-10-19T00:52:29.092Z,5.14
2022-10-19T00:53:29.275Z,5.15
2022-10-19T00:54:29.353Z,5.11
2022-10-19T00:55:29.442Z,5.17
2022-10-19T00:56:29.732Z,5.20
2022-10-19T00:57:29.740Z,5.24
2022-10-19T00:58:29.891Z,5.17
2022-10-19T00:59:30.054Z,5.15
2022-10-19T01:00:30.196Z,5.14
2022-10-19T01:01:30.388Z,5.19
2022-10-19T01:02:30.770Z,5.20
2022-10-19T01:03:30.607Z,5.19
2022-10-19T01:04:30.792Z,5.11
2022-10-19T01:05:30.940Z,5.02
2022-10-19T01:06:31.146Z,4.96
2022-10-19T01:07:31.451Z,4.94
2022-10-19T01:08:31.412Z,4.97
2022-10-19T01:09:31.569Z,4.93
2022-10-19T01:10:31.772Z,4.87
2022-10-19T01:11:31.835Z,4.87
2022-10-19T01:12:32.010Z,4.86
2022-10-19T01:13:32.205Z,4.87
2022-10-19T01:14:32.909Z,4.93
2022-10-19T01:15:32.442Z,5.04
2022-10-19T01:16:32.614Z,5.05
2022-10-19T01:17:32.960Z,5.08
2022-10-19T01:18:32.849Z,5.08
2022-10-19T01:19:32.941Z,5.09
2022-10-19T01:20:33.114Z,5.08
2022-10-19T01:21:33.298Z,4.99
2022-10-19T01:22:33.380Z,4.94
2022-10-19T01:23:33.544Z,4.90
2022-10-19T01:24:35.830Z,4.86
2022-10-19T01:25:33.831Z,4.80
2022-10-19T01:26:33.920Z,4.80
2022-10-19T01:27:34.398Z,4.83
2022-10-19T01:28:34.379Z,4.79
2022-10-19T01:29:34.310Z,4.77
2022-10-19T01:30:34.517Z,4.77
2022-10-19T01:31:34.633Z,4.75
2022-10-19T01:32:34.803Z,4.80
2022-10-19T01:33:34.964Z,4.83
2022-10-19T01:34:35.030Z,4.80
2022-10-19T01:35:35.193Z,4.74
2022-10-19T01:36:35.360Z,4.71
2022-10-19T01:37:35.792Z,4.69
2022-10-19T01:38:35.633Z,4.68
2022-10-19T01:39:35.730Z,4.68
2022-10-19T01:40:35.843Z,4.65
2022-10-19T01:41:35.984Z,4.64
2022-10-19T01:42:36.169Z,4.64
2022-10-19T01:43:36.326Z,4.64
2022-10-19T01:44:36.609Z,4.64
2022-10-19T01:45:36.646Z,4.64
2022-10-19T01:46:36.806Z,4.62
2022-10-19T01:47:37.125Z,4.64
2022-10-19T01:48:37.121Z,4.59
2022-10-19T01:49:37.302Z,4.56
2022-10-19T01:50:37.438Z,4.54
2022-10-19T01:51:37.554Z,4.54
2022-10-19T01:52:37.722Z,4.61
2022-10-19T01:53:37.897Z,4.65
2022-10-19T01:54:38.046Z,4.68
2022-10-19T01:55:38.187Z,4.65
2022-10-19T01:56:38.323Z,4.64
2022-10-19T01:57:38.502Z,4.62
2022-10-19T01:58:38.664Z,4.61
2022-10-19T01:59:38.824Z,4.54
2022-10-19T02:00:39.047Z,4.50
2022-10-19T02:01:39.094Z,4.49
2022-10-19T02:02:39.264Z,4.54
2022-10-19T02:03:39.412Z,4.54
2022-10-19T02:04:39.554Z,4.54
2022-10-19T02:05:39.634Z,4.56
2022-10-19T02:06:39.813Z,4.61
2022-10-19T02:07:39.984Z,4.62
2022-10-19T02:08:40.143Z,4.61
2022-10-19T02:09:40.330Z,4.57
2022-10-19T02:10:40.475Z,4.54
2022-10-19T02:11:42.481Z,4.47
2022-10-19T02:12:40.667Z,4.44
2022-10-19T02:13:40.811Z,4.43
2022-10-19T02:14:40.936Z,4.44
2022-10-19T02:15:41.141Z,4.49
2022-10-19T02:16:41.200Z,4.50
2022-10-19T02:17:41.288Z,4.51
2022-10-19T02:18:41.474Z,4.51
2022-10-19T02:19:41.665Z,4.53
2022-10-19T02:20:41.815Z,4.50
2022-10-19T02:21:41.952Z,4.47
2022-10-19T02:22:42.082Z,4.43
2022-10-19T02:23:42.217Z,4.42
2022-10-19T02:24:42.402Z,4.38
2022-10-19T02:25:42.614Z,4.39
2022-10-19T02:26:42.701Z,4.38
2022-10-19T02:27:42.809Z,4.36
2022-10-19T02:28:42.971Z,4.34
2022-10-19T02:29:43.108Z,4.31
2022-10-19T02:30:43.184Z,4.29
2022-10-19T02:31:43.349Z,4.29
2022-10-19T02:32:43.518Z,4.28
2022-10-19T02:33:43.666Z,4.26
2022-10-19T02:34:43.785Z,4.25
2022-10-19T02:35:43.938Z,4.24
2022-10-19T02:36:44.078Z,4.21
2022-10-19T02:37:44.164Z,4.16
2022-10-19T02:38:44.350Z,4.16
2022-10-19T02:39:44.439Z,4.11
2022-10-19T02:40:44.620Z,4.20
2022-10-19T02:41:44.792Z,4.24
2022-10-19T02:42:44.874Z,4.26
2022-10-19T02:43:45.086Z,4.28
2022-10-19T02:44:45.200Z,4.29
2022-10-19T02:45:45.427Z,4.32
2022-10-19T02:46:45.527Z,4.32
2022-10-19T02:47:45.666Z,4.29
2022-10-19T02:48:45.771Z,4.28
2022-10-19T02:49:45.923Z,4.25
2022-10-19T02:50:46.091Z,4.21
2022-10-19T02:51:46.187Z,4.16
2022-10-19T02:52:46.369Z,4.08
2022-10-19T02:53:46.508Z,4.04
2022-10-19T02:54:46.692Z,4.00
2022-10-19T02:55:46.772Z,4.02
2022-10-19T02:56:46.956Z,4.06
2022-10-19T02:57:47.119Z,4.08
2022-10-19T02:58:47.297Z,4.07
2022-10-19T02:59:47.400Z,4.08
2022-10-19T03:00:47.584Z,4.07
2022-10-19T03:01:47.668Z,4.06
2022-10-19T03:02:47.862Z,4.10
2022-10-19T03:03:47.985Z,4.07
2022-10-19T03:05:48.304Z,4.10
2022-10-19T03:06:48.478Z,4.08
2022-10-19T03:07:48.618Z,4.04
2022-10-19T03:08:48.800Z,3.99
2022-10-19T03:09:48.970Z,4.00
2022-10-19T03:10:49.158Z,3.98
2022-10-19T03:11:49.294Z,3.96
2022-10-19T03:12:49.446Z,3.95
2022-10-19T03:13:49.598Z,3.93
2022-10-19T03:14:49.774Z,3.93
2022-10-19T03:15:49.915Z,3.92
2022-10-19T03:16:50.096Z,3.95
2022-10-19T03:17:50.262Z,3.90
2022-10-19T03:18:50.440Z,3.92
2022-10-19T03:19:50.575Z,3.89
2022-10-19T03:20:50.681Z,3.84
2022-10-19T03:21:50.804Z,3.80
2022-10-19T03:22:50.983Z,3.78
2022-10-19T03:23:51.095Z,3.84
2022-10-19T03:24:51.229Z,3.89
2022-10-19T03:25:51.418Z,3.92
2022-10-19T03:26:51.513Z,3.96
2022-10-19T03:27:51.675Z,3.95
2022-10-19T03:28:51.852Z,3.95
2022-10-19T03:29:51.952Z,3.95
2022-10-19T03:30:52.050Z,3.95
2022-10-19T03:31:52.799Z,3.95
2022-10-19T03:32:52.403Z,3.95
2022-10-19T03:33:52.504Z,3.92
2022-10-19T03:34:52.651Z,3.93
2022-10-19T03:35:52.830Z,3.92
2022-10-19T03:36:53.000Z,3.89
2022-10-19T03:37:53.752Z,3.89
2022-10-19T03:38:53.232Z,3.89
2022-10-19T03:39:53.320Z,3.84
2022-10-19T03:40:53.497Z,3.88
2022-10-19T03:41:53.665Z,3.90
2022-10-19T03:42:53.883Z,3.84
2022-10-19T03:43:53.988Z,3.86
2022-10-19T03:44:54.129Z,3.82
2022-10-19T03:45:54.217Z,3.77
2022-10-19T03:46:54.384Z,3.71
2022-10-19T03:47:54.556Z,3.64
2022-10-19T03:48:54.662Z,3.60
2022-10-19T03:49:54.861Z,3.60
2022-10-19T03:50:54.980Z,3.62
2022-10-19T03:51:55.129Z,3.64
2022-10-19T03:52:55.410Z,3.62
2022-10-19T03:53:55.477Z,3.56
2022-10-19T03:54:55.637Z,3.56
2022-10-19T03:55:55.795Z,3.57
2022-10-19T03:56:55.966Z,3.54
2022-10-19T03:57:56.178Z,3.53
2022-10-19T03:58:56.225Z,3.45
2022-10-19T03:59:56.389Z,3.46
2022-10-19T04:00:56.561Z,3.44
2022-10-19T04:01:56.681Z,3.39
2022-10-19T04:02:56.805Z,3.41
2022-10-19T04:03:56.885Z,3.42
2022-10-19T04:04:57.047Z,3.42
2022-10-19T04:05:57.203Z,3.45
2022-10-19T04:06:57.358Z,3.46
2022-10-19T04:07:57.506Z,3.46
2022-10-19T04:08:57.639Z,3.46
2022-10-19T04:09:57.799Z,3.42
2022-10-19T04:10:57.985Z,3.39
2022-10-19T04:11:58.138Z,3.42
2022-10-19T04:12:58.235Z,3.46
2022-10-19T04:13:58.429Z,3.49
2022-10-19T04:14:58.459Z,3.50
2022-10-19T04:15:58.650Z,3.56
2022-10-19T04:16:58.746Z,3.57
2022-10-19T04:17:58.904Z,3.59
2022-10-19T04:18:59.012Z,3.64
2022-10-19T04:19:59.167Z,3.63
2022-10-19T04:20:59.357Z,3.63
2022-10-19T04:21:59.473Z,3.57
2022-10-19T04:22:59.605Z,3.54
2022-10-19T04:23:59.692Z,3.52
2022-10-19T04:24:59.833Z,3.46
2022-10-19T04:25:59.957Z,3.49
2022-10-19T04:27:00.051Z,3.49
2022-10-19T04:28:00.224Z,3.45
2022-10-19T04:29:00.456Z,3.50
2022-10-19T04:30:00.555Z,3.49
2022-10-19T04:31:00.678Z,3.50
2022-10-19T04:32:00.829Z,3.50
2022-10-19T04:33:00.963Z,3.52
2022-10-19T04:34:01.052Z,3.54
2022-10-19T04:35:01.230Z,3.54
2022-10-19T04:36:01.434Z,3.56
2022-10-19T04:37:01.572Z,3.54
2022-10-19T04:38:01.701Z,3.50
2022-10-19T04:39:01.822Z,3.53
2022-10-19T04:40:01.994Z,3.49
2022-10-19T04:41:02.100Z,3.46
2022-10-19T04:42:02.256Z,3.45
2022-10-19T04:43:02.451Z,3.45
2022-10-19T04:44:02.691Z,3.44
2022-10-19T04:45:02.741Z,3.45
2022-10-19T04:46:02.978Z,3.42
2022-10-19T04:47:03.012Z,3.44
2022-10-19T04:48:03.303Z,3.50
2022-10-19T04:49:03.329Z,3.53
2022-10-19T04:50:03.505Z,3.50
2022-10-19T04:51:03.599Z,3.49
2022-10-19T04:52:03.732Z,3.44
2022-10-19T04:53:03.846Z,3.35
2022-10-19T04:54:04.012Z,3.39
2022-10-19T04:55:04.172Z,3.35
2022-10-19T04:56:04.351Z,3.33
2022-10-19T04:57:04.427Z,3.33
2022-10-19T04:58:04.618Z,3.37
2022-10-19T04:59:04.735Z,3.37
2022-10-19T05:00:04.847Z,3.35
2022-10-19T05:01:04.987Z,3.37
2022-10-19T05:02:05.079Z,3.49
2022-10-19T05:03:05.163Z,3.52
2022-10-19T05:04:05.307Z,3.52
2022-10-19T05:05:05.419Z,3.50
2022-10-19T05:06:05.507Z,3.50
2022-10-19T05:07:05.701Z,3.50
2022-10-19T05:08:05.795Z,3.53
2022-10-19T05:09:05.918Z,3.52
2022-10-19T05:10:06.078Z,3.49
2022-10-19T05:11:06.236Z,3.44
2022-10-19T05:12:06.384Z,3.37
2022-10-19T05:13:06.546Z,3.37
2022-10-19T05:14:06.729Z,3.39
2022-10-19T05:15:06.885Z,3.39
2022-10-19T05:16:07.035Z,3.46
2022-10-19T05:17:07.178Z,3.45
2022-10-19T05:18:07.327Z,3.42
2022-10-19T05:19:07.481Z,3.44
2022-10-19T05:20:07.677Z,3.39
2022-10-19T05:21:07.755Z,3.31
2022-10-19T05:22:07.950Z,3.28
2022-10-19T05:23:08.086Z,3.28
2022-10-19T05:24:09.209Z,3.25
2022-10-19T05:25:08.458Z,3.26
2022-10-19T05:26:08.715Z,3.25
2022-10-19T05:27:08.713Z,3.20
2022-10-19T05:28:08.855Z,3.17
2022-10-19T05:29:09.053Z,3.15
2022-10-19T05:30:09.187Z,3.10
2022-10-19T05:31:09.263Z,3.04
2022-10-19T05:32:09.435Z,3.01
2022-10-19T05:33:09.584Z,3.02
2022-10-19T05:34:09.806Z,3.05
2022-10-19T05:35:10.499Z,3.08
2022-10-19T05:36:10.103Z,3.08
2022-10-19T05:37:10.171Z,3.07
2022-10-19T05:38:10.330Z,3.05
2022-10-19T05:39:10.484Z,3.07
2022-10-19T05:40:10.649Z,3.08
2022-10-19T05:41:10.750Z,3.07
2022-10-19T05:42:10.870Z,3.10
2022-10-19T05:43:11.037Z,3.15
2022-10-19T05:44:11.200Z,3.15
2022-10-19T05:45:11.303Z,3.13
2022-10-19T05:46:11.464Z,3.19
2022-10-19T05:47:11.621Z,3.26
2022-10-19T05:48:11.745Z,3.31
2022-10-19T05:49:11.919Z,3.34
2022-10-19T05:50:12.081Z,3.35
2022-10-19T05:51:12.241Z,3.39
2022-10-19T05:52:12.486Z,3.35
2022-10-19T05:53:12.589Z,3.45
2022-10-19T05:54:12.772Z,3.50
2022-10-19T05:55:12.830Z,3.53
2022-10-19T05:56:13.009Z,3.57
2022-10-19T05:57:13.108Z,3.60
2022-10-19T05:58:13.285Z,3.63
2022-10-19T05:59:13.394Z,3.64
2022-10-19T06:00:13.559Z,3.63
2022-10-19T06:01:13.719Z,3.64
2022-10-19T06:02:13.866Z,3.67
2022-10-19T06:03:13.919Z,3.67
2022-10-19T06:04:14.157Z,3.71
2022-10-19T06:05:14.137Z,3.72
2022-10-19T06:06:14.377Z,3.75
2022-10-19T06:07:14.558Z,3.80
2022-10-19T06:08:14.639Z,3.82
2022-10-19T06:09:14.758Z,3.88
2022-10-19T06:10:14.933Z,3.92
2022-10-19T06:11:15.115Z,3.95
2022-10-19T06:12:16.369Z,4.02
2022-10-19T06:13:15.430Z,4.06
2022-10-19T06:14:15.526Z,4.07
2022-10-19T06:15:15.636Z,4.13
2022-10-19T06:16:15.739Z,4.18
2022-10-19T06:17:15.902Z,4.24
2022-10-19T06:18:16.018Z,4.24
2022-10-19T06:19:16.232Z,4.32
2022-10-19T06:20:16.300Z,4.35
2022-10-19T06:21:16.446Z,4.39
2022-10-19T06:22:16.643Z,4.44
2022-10-19T06:23:16.737Z,4.47
2022-10-19T06:24:16.927Z,4.50
2022-10-19T06:25:20.189Z,4.56
2022-10-19T06:26:17.243Z,4.59
2022-10-19T06:27:17.297Z,4.64
2022-10-19T06:28:17.415Z,4.67
2022-10-19T06:29:17.544Z,4.64
2022-10-19T06:30:17.787Z,4.62
2022-10-19T06:31:17.933Z,4.65
2022-10-19T06:32:18.049Z,4.67
2022-10-19T06:33:18.137Z,4.72
2022-10-19T06:34:18.285Z,4.77
2022-10-19T06:35:18.391Z,4.77
2022-10-19T06:36:18.505Z,4.79
2022-10-19T06:37:18.608Z,4.80
2022-10-19T06:38:18.808Z,4.79
2022-10-19T06:39:18.917Z,4.80
2022-10-19T06:40:19.173Z,4.84
2022-10-19T06:41:19.218Z,4.86
2022-10-19T06:42:19.406Z,4.86
2022-10-19T06:43:19.493Z,4.86
2022-10-19T06:44:19.661Z,4.86
2022-10-19T06:45:19.836Z,4.87
2022-10-19T06:46:20.003Z,4.88
2022-10-19T06:47:20.157Z,4.88
2022-10-19T06:48:20.329Z,4.90
2022-10-19T06:49:20.506Z,4.90
2022-10-19T06:50:20.650Z,4.88
2022-10-19T06:51:20.721Z,4.93
2022-10-19T06:52:20.901Z,4.93
2022-10-19T06:53:21.012Z,4.94
2022-10-19T06:54:21.125Z,4.94
2022-10-19T06:55:21.230Z,4.99
2022-10-19T06:56:21.965Z,5.01
2022-10-19T06:57:21.507Z,5.05
2022-10-19T06:58:21.692Z,5.09
2022-10-19T06:59:21.803Z,5.15
2022-10-19T07:00:21.899Z,5.24
2022-10-19T07:01:22.134Z,5.30
2022-10-19T07:02:22.253Z,5.33
2022-10-19T07:03:22.351Z,5.41
2022-10-19T07:04:22.458Z,5.44
2022-10-19T07:05:22.584Z,5.47
2022-10-19T07:06:22.712Z,5.51
2022-10-19T07:07:22.940Z,5.58
2022-10-19T07:08:22.963Z,5.60
2022-10-19T07:09:23.101Z,5.63
2022-10-19T07:10:23.276Z,5.69
2022-10-19T07:11:23.422Z,5.75
2022-10-19T07:12:23.589Z,5.80
2022-10-19T07:13:23.748Z,5.87
2022-10-19T07:14:23.860Z,5.95
2022-10-19T07:15:24.049Z,5.99
2022-10-19T07:16:24.160Z,6.06
2022-10-19T07:17:24.241Z,6.13
2022-10-19T07:18:24.366Z,6.21
2022-10-19T07:19:24.544Z,6.28
2022-10-19T07:20:24.795Z,6.38
2022-10-19T07:21:24.774Z,6.45
2022-10-19T07:22:28.119Z,6.53
2022-10-19T07:23:25.037Z,6.60
2022-10-19T07:24:25.309Z,6.65
2022-10-19T07:25:25.368Z,6.69
2022-10-19T07:26:25.556Z,6.73
2022-10-19T07:27:25.658Z,6.79
2022-10-19T07:28:25.857Z,6.86
2022-10-19T07:29:25.976Z,6.93
2022-10-19T07:30:26.029Z,7.01
2022-10-19T07:31:26.189Z,7.05
2022-10-19T07:32:26.369Z,7.05
2022-10-19T07:33:26.538Z,7.14
2022-10-19T07:34:28.928Z,7.16
2022-10-19T07:35:26.758Z,7.23
2022-10-19T07:36:26.888Z,7.26
2022-10-19T07:37:26.977Z,7.30
2022-10-19T07:38:27.157Z,7.34
2022-10-19T07:39:27.267Z,7.41
2022-10-19T07:40:27.366Z,7.47
2022-10-19T07:41:27.466Z,7.55
2022-10-19T07:42:27.664Z,7.63
2022-10-19T07:43:27.741Z,7.76
2022-10-19T07:44:27.948Z,7.88
2022-10-19T07:45:28.039Z,7.95
2022-10-19T07:46:28.216Z,8.04
2022-10-19T07:47:28.310Z,8.14
2022-10-19T07:48:28.508Z,8.27
2022-10-19T07:49:28.676Z,8.37
2022-10-19T07:50:28.805Z,8.49
2022-10-19T07:52:30.802Z,8.65
2022-10-19T07:53:29.165Z,8.76
2022-10-19T07:54:29.346Z,8.83
2022-10-19T07:55:29.451Z,8.96
2022-10-19T07:56:29.535Z,9.01
2022-10-19T07:57:29.786Z,9.13
2022-10-19T07:58:29.916Z,9.20
2022-10-19T07:59:30.045Z,9.27
2022-10-19T08:00:30.229Z,9.35
2022-10-19T08:01:30.345Z,9.40
2022-10-19T08:02:39.486Z,9.42
2022-10-19T08:04:14.307Z,9.53
2022-10-19T08:04:59.085Z,9.58
2022-10-19T08:05:31.833Z,9.68
2022-10-19T08:06:30.950Z,9.74
2022-10-19T08:07:31.088Z,9.75
2022-10-19T08:08:31.206Z,9.81
2022-10-19T08:09:52.205Z,9.85
2022-10-19T08:10:32.393Z,9.86
2022-10-19T08:11:31.572Z,9.85
2022-10-19T08:12:32.002Z,9.89
2022-10-19T08:13:31.783Z,9.96
2022-10-19T08:14:31.894Z,10.02
2022-10-19T08:15:32.006Z,10.01
2022-10-19T08:16:32.114Z,10.04
2022-10-19T08:17:32.245Z,10.01
2022-10-19T08:19:32.494Z,10.14
2022-10-19T08:20:32.623Z,10.18
2022-10-19T08:21:32.741Z,10.25
2022-10-19T08:22:33.205Z,10.22
2022-10-19T08:23:32.990Z,10.25
2022-10-19T08:24:33.102Z,10.25
2022-10-19T08:25:33.211Z,10.32
2022-10-19T08:26:33.322Z,10.29
2022-10-19T08:27:33.517Z,10.36
2022-10-19T08:28:33.553Z,10.42
2022-10-19T08:29:33.676Z,10.44
2022-10-19T08:30:33.791Z,10.54
2022-10-19T08:31:33.915Z,10.60
2022-10-19T08:32:34.505Z,10.63
2022-10-19T08:33:34.151Z,10.63
2022-10-19T08:34:34.282Z,10.62
2022-10-19T08:35:34.391Z,10.60
2022-10-19T08:36:34.537Z,10.57
2022-10-19T08:37:45.294Z,10.55
2022-10-19T08:38:35.805Z,10.65
2022-10-19T08:39:34.904Z,10.72
2022-10-19T08:40:35.017Z,10.81
2022-10-19T08:41:35.168Z,10.75
2022-10-19T08:42:35.606Z,10.83
2022-10-19T08:43:35.424Z,10.88
2022-10-19T08:44:35.521Z,10.94
2022-10-19T08:45:35.706Z,11.02
2022-10-19T08:46:35.740Z,11.01
2022-10-19T08:47:36.053Z,11.06
2022-10-19T08:48:36.067Z,11.06
2022-10-19T08:49:36.208Z,11.13
2022-10-19T08:50:36.226Z,11.28
2022-10-19T08:51:36.332Z,11.36
2022-10-19T08:52:36.460Z,11.46
2022-10-19T08:53:36.541Z,11.57
2022-10-19T08:54:36.746Z,11.60
2022-10-19T08:55:36.816Z,11.69
2022-10-19T08:56:50.467Z,11.87
2022-10-19T08:57:38.085Z,12.00
2022-10-19T08:58:37.181Z,12.08
2022-10-19T08:59:37.299Z,12.11
2022-10-19T09:00:37.465Z,12.15
2022-10-19T09:01:37.845Z,12.22
2022-10-19T09:02:37.667Z,12.23
2022-10-19T09:03:54.932Z,12.31
2022-10-19T09:04:38.901Z,12.25
2022-10-19T09:05:38.018Z,12.33
2022-10-19T09:06:38.126Z,12.46
2022-10-19T09:07:38.242Z,12.62
2022-10-19T09:08:39.334Z,12.71
2022-10-19T09:09:38.637Z,12.89
2022-10-19T09:10:38.610Z,13.09
2022-10-19T09:11:38.730Z,13.44
2022-10-19T09:12:38.833Z,13.68
2022-10-19T09:13:47.190Z,13.62
2022-10-19T09:14:40.100Z,13.81
2022-10-19T09:15:39.231Z,14.12
2022-10-19T09:16:39.353Z,14.17
2022-10-19T09:17:39.473Z,14.13
2022-10-19T09:18:39.599Z,14.04
2022-10-19T09:19:39.704Z,13.96
2022-10-19T09:20:39.831Z,13.71
2022-10-19T09:21:44.586Z,13.83
2022-10-19T09:22:41.090Z,13.94
2022-10-19T09:23:40.242Z,14.39
2022-10-19T09:24:40.360Z,14.20
2022-10-19T09:25:40.483Z,13.88
2022-10-19T09:26:40.591Z,13.93
2022-10-19T09:27:40.724Z,13.81
2022-10-19T09:28:40.830Z,14.13
2022-10-19T09:29:40.947Z,14.56
2022-10-19T09:30:41.073Z,14.71
2022-10-19T09:31:41.181Z,14.90
2022-10-19T09:32:41.322Z,14.86
2022-10-19T09:33:41.430Z,15.03
2022-10-19T09:34:41.539Z,14.91
2022-10-19T09:35:41.709Z,14.97
2022-10-19T09:36:56.964Z,14.91
2022-10-19T09:37:42.901Z,14.86
2022-10-19T09:38:42.040Z,14.87
2022-10-19T09:39:50.401Z,14.61
2022-10-19T09:40:43.250Z,14.54
2022-10-19T09:41:42.354Z,14.41
2022-10-19T09:42:42.476Z,14.44
2022-10-19T09:43:42.618Z,14.46
2022-10-19T09:44:42.763Z,14.57
2022-10-19T09:45:42.886Z,14.61
2022-10-19T09:46:43.006Z,14.60
2022-10-19T09:47:43.142Z,14.69
2022-10-19T09:48:43.254Z,14.66
2022-10-19T09:49:43.361Z,14.90
2022-10-19T09:50:43.473Z,14.85
2022-10-19T09:51:43.593Z,15.07
2022-10-19T09:52:43.729Z,15.38
2022-10-19T09:53:43.855Z,15.59
2022-10-19T09:54:43.955Z,15.67
2022-10-19T09:55:44.199Z,15.77
2022-10-19T09:56:44.190Z,15.89
2022-10-19T09:57:44.342Z,16.10
2022-10-19T09:58:44.416Z,16.44
2022-10-19T09:59:44.546Z,16.62
2022-10-19T10:00:44.670Z,16.80
2022-10-19T10:01:44.896Z,16.88
2022-10-19T10:03:45.027Z,17.15
2022-10-19T10:04:45.130Z,17.25
2022-10-19T10:05:45.252Z,17.36
2022-10-19T10:06:45.363Z,17.53
2022-10-19T10:07:45.482Z,17.79
2022-10-19T10:08:45.652Z,18.09
2022-10-19T10:09:45.750Z,18.34
2022-10-19T10:10:45.899Z,18.53
2022-10-19T10:11:46.087Z,18.86
2022-10-19T10:12:46.111Z,19.46
2022-10-19T10:13:46.233Z,19.45
2022-10-19T10:14:46.332Z,19.67
2022-10-19T10:15:46.451Z,19.10
2022-10-19T10:16:46.564Z,18.54
2022-10-19T10:17:46.699Z,18.76
2022-10-19T10:18:46.814Z,19.23
2022-10-19T10:19:46.935Z,19.43
2022-10-19T10:20:47.058Z,19.39
2022-10-19T10:21:47.185Z,19.53
2022-10-19T10:22:47.301Z,19.95
2022-10-19T10:23:47.433Z,20.26
2022-10-19T10:24:47.540Z,19.87
2022-10-19T10:25:47.661Z,19.87
2022-10-19T10:26:47.774Z,19.83
2022-10-19T10:27:47.889Z,19.71
2022-10-19T10:28:48.000Z,19.80
2022-10-19T10:29:48.136Z,19.52
2022-10-19T10:30:48.234Z,19.30
2022-10-19T10:31:48.381Z,19.21
2022-10-19T10:32:48.579Z,19.13
2022-10-19T10:33:48.662Z,19.15
2022-10-19T10:34:52.194Z,18.83
2022-10-19T10:35:49.837Z,18.49
2022-10-19T10:36:48.950Z,18.54
2022-10-19T10:37:49.066Z,18.94
2022-10-19T10:38:49.238Z,19.01
2022-10-19T10:39:49.438Z,18.93
2022-10-19T10:40:49.441Z,18.76
2022-10-19T10:41:49.563Z,19.24
2022-10-19T10:42:49.695Z,19.61
2022-10-19T10:44:49.916Z,19.97
2022-10-19T10:45:50.036Z,20.42
2022-10-19T10:46:50.135Z,20.53
2022-10-19T10:47:50.266Z,20.82
2022-10-19T10:48:52.740Z,20.78
2022-10-19T10:49:50.504Z,19.90
2022-10-19T10:50:50.604Z,19.75
2022-10-19T10:51:52.952Z,20.54
2022-10-19T10:52:50.863Z,21.21
2022-10-19T10:53:51.002Z,21.26
2022-10-19T10:54:51.116Z,20.71
2022-10-19T10:55:51.237Z,20.27
2022-10-19T10:56:51.357Z,19.95
2022-10-19T10:57:51.485Z,20.07
2022-10-19T10:58:51.575Z,19.94
2022-10-19T10:59:51.773Z,19.65
2022-10-19T11:00:51.865Z,19.71
2022-10-19T11:01:52.124Z,19.75
2022-10-19T11:02:52.125Z,20.07
2022-10-19T11:03:52.249Z,20.64
2022-10-19T11:04:52.579Z,21.19
2022-10-19T11:05:52.472Z,20.87
2022-10-19T11:06:52.596Z,20.05
2022-10-19T11:07:52.734Z,19.80
2022-10-19T11:08:52.912Z,19.95
2022-10-19T11:09:52.984Z,20.41
2022-10-19T11:10:53.108Z,20.38
2022-10-19T11:11:53.254Z,20.23
2022-10-19T11:12:53.366Z,20.02
2022-10-19T11:13:53.476Z,20.12
2022-10-19T11:14:53.565Z,19.87
2022-10-19T11:15:53.711Z,19.68
2022-10-19T11:16:53.842Z,19.28
2022-10-19T11:17:53.962Z,19.28
2022-10-19T11:18:54.084Z,19.86
2022-10-19T11:19:54.213Z,20.66
2022-10-19T11:20:54.328Z,20.50
2022-10-19T11:21:54.446Z,20.88
2022-10-19T11:22:54.545Z,20.68
2022-10-19T11:23:54.711Z,20.94
2022-10-19T11:24:54.800Z,21.13
2022-10-19T11:25:54.902Z,21.58
2022-10-19T11:26:55.030Z,22.09
2022-10-19T11:27:55.302Z,21.93
2022-10-19T11:28:55.287Z,22.35
2022-10-19T11:29:55.420Z,21.89
2022-10-19T11:30:55.532Z,22.08
2022-10-19T11:31:55.682Z,22.39
2022-10-19T11:32:55.747Z,21.77
2022-10-19T11:33:55.872Z,21.16
2022-10-19T11:34:56.004Z,21.12
2022-10-19T11:35:56.159Z,21.91
2022-10-19T11:36:56.315Z,22.08
2022-10-19T11:38:18.209Z,22.20
2022-10-19T11:38:57.520Z,21.98
2022-10-19T11:39:56.647Z,21.45
2022-10-19T11:41:16.837Z,21.74
2022-10-19T11:41:57.921Z,21.61
2022-10-19T11:42:57.027Z,21.58
2022-10-19T11:43:57.148Z,21.43
2022-10-19T11:44:57.275Z,21.63
2022-10-19T11:45:57.393Z,21.98
2022-10-19T11:46:57.495Z,22.23
2022-10-19T11:47:57.712Z,22.05
2022-10-19T11:48:57.732Z,21.77
2022-10-19T11:49:57.957Z,21.19
2022-10-19T11:50:58.944Z,21.45
2022-10-19T11:51:59.121Z,21.77
2022-10-19T11:52:58.220Z,21.91
2022-10-19T11:53:58.362Z,22.29
2022-10-19T11:54:58.494Z,22.63
2022-10-19T11:55:58.661Z,22.86
2022-10-19T11:57:03.988Z,22.57
2022-10-19T11:57:59.865Z,22.72
2022-10-19T11:58:58.979Z,22.56
2022-10-19T12:00:08.235Z,22.88
2022-10-19T12:01:00.235Z,23.39
2022-10-19T12:01:59.374Z,23.81
2022-10-19T12:03:02.847Z,24.31
2022-10-19T12:03:59.626Z,24.93
2022-10-19T12:04:59.735Z,25.59
2022-10-19T12:05:59.873Z,24.97
2022-10-19T12:07:00.001Z,24.04
2022-10-19T12:08:00.133Z,23.21
2022-10-19T12:09:00.305Z,22.66
2022-10-19T12:10:00.394Z,22.85
2022-10-19T12:11:00.562Z,23.29
2022-10-19T12:12:00.670Z,22.79
2022-10-19T12:13:00.787Z,22.42
2022-10-19T12:14:00.898Z,22.04
2022-10-19T12:15:00.994Z,22.21
2022-10-19T12:16:01.151Z,22.42
2022-10-19T12:17:01.408Z,22.81
2022-10-19T12:18:01.455Z,23.31
2022-10-19T12:19:01.534Z,23.47
2022-10-19T12:20:01.658Z,22.88
2022-10-19T12:21:01.784Z,22.26
2022-10-19T12:22:01.907Z,22.11
2022-10-19T12:23:02.015Z,22.17
2022-10-19T12:24:02.128Z,21.96
2022-10-19T12:25:02.255Z,21.82
2022-10-19T12:26:02.389Z,21.96
2022-10-19T12:27:02.516Z,22.02
2022-10-19T12:28:02.773Z,22.04
2022-10-19T12:29:02.961Z,21.71
2022-10-19T12:30:02.866Z,21.46
2022-10-19T12:31:02.996Z,21.71
2022-10-19T12:32:03.125Z,21.74
2022-10-19T12:33:03.225Z,21.64
2022-10-19T12:34:03.360Z,21.71
2022-10-19T12:35:03.512Z,21.82
2022-10-19T12:36:03.638Z,21.74
2022-10-19T12:37:03.779Z,22.05
2022-10-19T12:38:03.870Z,22.46
2022-10-19T12:39:03.997Z,22.63
2022-10-19T12:40:04.187Z,22.45
2022-10-19T12:41:04.282Z,22.42
2022-10-19T12:42:04.417Z,22.61
2022-10-19T12:43:04.556Z,22.51
2022-10-19T12:44:04.659Z,22.02
2022-10-19T12:45:04.780Z,21.34
2022-10-19T12:46:04.869Z,20.90
2022-10-19T12:47:05.025Z,20.58
2022-10-19T12:48:05.147Z,20.46
2022-10-19T12:49:05.291Z,20.54
2022-10-19T12:50:05.471Z,21.36
2022-10-19T12:51:05.491Z,21.98
2022-10-19T12:52:05.627Z,22.02
2022-10-19T12:53:05.812Z,21.59
2022-10-19T12:54:05.838Z,21.53
2022-10-19T12:55:05.978Z,21.19
2022-10-19T12:56:06.142Z,20.69
2022-10-19T12:57:06.247Z,20.41
2022-10-19T12:58:06.380Z,20.17
2022-10-19T12:59:06.498Z,19.90
2022-10-19T13:00:06.621Z,19.52
2022-10-19T13:01:06.828Z,19.40
2022-10-19T13:02:06.849Z,18.94
2022-10-19T13:03:06.982Z,18.97
2022-10-19T13:04:07.121Z,19.38
2022-10-19T13:05:07.270Z,19.49
2022-10-19T13:06:07.362Z,19.24
2022-10-19T13:07:07.491Z,19.43
2022-10-19T13:08:10.678Z,20.01
2022-10-19T13:09:08.802Z,20.83
2022-10-19T13:10:07.906Z,21.56
2022-10-19T13:11:07.982Z,22.09
2022-10-19T13:12:08.098Z,22.21
2022-10-19T13:13:08.301Z,22.33
2022-10-19T13:14:08.343Z,22.36
2022-10-19T13:15:08.471Z,21.66